sensor_id;sensor_type;location;lat;lon;timestamp;P1;durP1;ratioP1;P2;durP2;ratioP2
8409;SDS011;4242;53.670;10.080;2022-08-19T00:01:09;14.10;;;11.07;;
8409;SDS011;4242;53.670;10.080;2022-08-19T00:03:36;14.05;;;11.60;;
8409;SDS011;4242;53.670;10.080;2022-08-19T00:06:02;14.43;;;11.35;;
8409;SDS011;4242;53.670;10.080;2022-08-19T00:08:29;14.50;;;11.73;;
8409;SDS011;4242;53.670;10.080;2022-08-19T00:10:54;13.70;;;11.27;;
8409;SDS011;4242;53.670;10.080;2022-08-19T00:13:21;12.30;;;10.90;;
8409;SDS011;4242;53.670;10.080;2022-08-19T00:15:46;13.93;;;11.52;;
8409;SDS011;4242;53.670;10.080;2022-08-19T00:18:12;15.67;;;12.20;;
8409;SDS011;4242;53.670;10.080;2022-08-19T00:20:38;19.58;;;12.95;;
8409;SDS011;4242;53.670;10.080;2022-08-19T00:23:05;19.47;;;13.60;;
8409;SDS011;4242;53.670;10.080;2022-08-19T00:25:32;19.10;;;12.93;;
8409;SDS011;4242;53.670;10.080;2022-08-19T00:27:58;21.63;;;15.00;;
8409;SDS011;4242;53.670;10.080;2022-08-19T00:30:25;19.30;;;14.17;;
8409;SDS011;4242;53.670;10.080;2022-08-19T00:32:52;16.83;;;13.33;;
8409;SDS011;4242;53.670;10.080;2022-08-19T00:35:20;18.23;;;14.13;;
8409;SDS011;4242;53.670;10.080;2022-08-19T00:37:46;17.73;;;12.63;;
8409;SDS011;4242;53.670;10.080;2022-08-19T00:40:13;17.15;;;13.40;;
8409;SDS011;4242;53.670;10.080;2022-08-19T00:42:40;16.60;;;12.87;;
8409;SDS011;4242;53.670;10.080;2022-08-19T00:45:11;20.17;;;13.50;;
8409;SDS011;4242;53.670;10.080;2022-08-19T00:47:37;19.43;;;14.20;;
8409;SDS011;4242;53.670;10.080;2022-08-19T00:50:03;18.10;;;13.07;;
8409;SDS011;4242;53.670;10.080;2022-08-19T00:52:31;18.73;;;13.20;;
8409;SDS011;4242;53.670;10.080;2022-08-19T00:54:58;17.97;;;13.53;;
8409;SDS011;4242;53.670;10.080;2022-08-19T00:57:29;25.13;;;15.80;;
8409;SDS011;4242;53.670;10.080;2022-08-19T00:59:56;23.93;;;16.83;;
8409;SDS011;4242;53.670;10.080;2022-08-19T01:02:23;21.00;;;16.43;;
8409;SDS011;4242;53.670;10.080;2022-08-19T01:04:49;19.03;;;16.20;;
8409;SDS011;4242;53.670;10.080;2022-08-19T01:07:15;27.83;;;17.13;;
8409;SDS011;4242;53.670;10.080;2022-08-19T01:09:41;21.03;;;16.53;;
8409;SDS011;4242;53.670;10.080;2022-08-19T01:12:08;20.57;;;16.33;;
8409;SDS011;4242;53.670;10.080;2022-08-19T01:14:34;22.80;;;17.93;;
8409;SDS011;4242;53.670;10.080;2022-08-19T01:17:00;24.43;;;17.97;;
8409;SDS011;4242;53.670;10.080;2022-08-19T01:19:34;22.13;;;17.70;;
8409;SDS011;4242;53.670;10.080;2022-08-19T01:22:48;26.87;;;17.10;;
8409;SDS011;4242;53.670;10.080;2022-08-19T01:24:47;29.43;;;18.67;;
8409;SDS011;4242;53.670;10.080;2022-08-19T01:27:13;24.77;;;18.93;;
8409;SDS011;4242;53.670;10.080;2022-08-19T01:29:40;24.57;;;18.97;;
8409;SDS011;4242;53.670;10.080;2022-08-19T01:32:07;23.37;;;17.53;;
8409;SDS011;4242;53.670;10.080;2022-08-19T01:34:34;23.50;;;17.23;;
8409;SDS011;4242;53.670;10.080;2022-08-19T01:37:01;20.97;;;16.60;;
8409;SDS011;4242;53.670;10.080;2022-08-19T01:39:31;23.70;;;17.47;;
8409;SDS011;4242;53.670;10.080;2022-08-19T01:41:57;20.10;;;17.13;;
8409;SDS011;4242;53.670;10.080;2022-08-19T01:44:24;24.83;;;18.90;;
8409;SDS011;4242;53.670;10.080;2022-08-19T01:46:50;27.07;;;19.20;;
8409;SDS011;4242;53.670;10.080;2022-08-19T01:49:17;24.23;;;18.37;;
8409;SDS011;4242;53.670;10.080;2022-08-19T01:51:46;23.40;;;17.63;;
8409;SDS011;4242;53.670;10.080;2022-08-19T01:54:14;24.63;;;17.80;;
8409;SDS011;4242;53.670;10.080;2022-08-19T01:56:40;24.67;;;17.40;;
8409;SDS011;4242;53.670;10.080;2022-08-19T01:59:10;25.30;;;18.27;;
8409;SDS011;4242;53.670;10.080;2022-08-19T02:01:37;22.07;;;17.47;;
8409;SDS011;4242;53.670;10.080;2022-08-19T02:04:03;23.93;;;17.50;;
8409;SDS011;4242;53.670;10.080;2022-08-19T02:06:30;26.73;;;18.37;;
8409;SDS011;4242;53.670;10.080;2022-08-19T02:08:57;25.97;;;18.73;;
8409;SDS011;4242;53.670;10.080;2022-08-19T02:11:24;28.70;;;18.87;;
8409;SDS011;4242;53.670;10.080;2022-08-19T02:13:52;31.23;;;18.80;;
8409;SDS011;4242;53.670;10.080;2022-08-19T02:16:18;28.77;;;18.80;;
8409;SDS011;4242;53.670;10.080;2022-08-19T02:18:45;32.60;;;18.83;;
8409;SDS011;4242;53.670;10.080;2022-08-19T02:21:13;36.37;;;19.10;;
8409;SDS011;4242;53.670;10.080;2022-08-19T02:23:40;31.47;;;20.00;;
8409;SDS011;4242;53.670;10.080;2022-08-19T02:26:06;37.60;;;19.07;;
8409;SDS011;4242;53.670;10.080;2022-08-19T02:28:32;30.90;;;18.70;;
8409;SDS011;4242;53.670;10.080;2022-08-19T02:30:58;36.83;;;18.63;;
8409;SDS011;4242;53.670;10.080;2022-08-19T02:33:27;33.37;;;18.70;;
8409;SDS011;4242;53.670;10.080;2022-08-19T02:35:53;34.47;;;18.37;;
8409;SDS011;4242;53.670;10.080;2022-08-19T02:38:19;34.73;;;19.27;;
8409;SDS011;4242;53.670;10.080;2022-08-19T02:40:52;30.43;;;19.87;;
8409;SDS011;4242;53.670;10.080;2022-08-19T02:43:19;33.50;;;19.93;;
8409;SDS011;4242;53.670;10.080;2022-08-19T02:45:45;35.07;;;19.13;;
8409;SDS011;4242;53.670;10.080;2022-08-19T02:48:13;43.13;;;21.07;;
8409;SDS011;4242;53.670;10.080;2022-08-19T02:50:39;38.90;;;20.17;;
8409;SDS011;4242;53.670;10.080;2022-08-19T02:53:05;34.67;;;20.37;;
8409;SDS011;4242;53.670;10.080;2022-08-19T02:55:33;32.77;;;20.50;;
8409;SDS011;4242;53.670;10.080;2022-08-19T02:57:59;35.73;;;19.47;;
8409;SDS011;4242;53.670;10.080;2022-08-19T03:00:25;34.00;;;19.13;;
8409;SDS011;4242;53.670;10.080;2022-08-19T03:02:52;36.90;;;20.83;;
8409;SDS011;4242;53.670;10.080;2022-08-19T03:05:18;36.70;;;19.63;;
8409;SDS011;4242;53.670;10.080;2022-08-19T03:07:44;32.83;;;19.80;;
8409;SDS011;4242;53.670;10.080;2022-08-19T03:10:12;32.57;;;18.63;;
8409;SDS011;4242;53.670;10.080;2022-08-19T03:12:38;33.10;;;18.80;;
8409;SDS011;4242;53.670;10.080;2022-08-19T03:15:05;32.70;;;17.83;;
8409;SDS011;4242;53.670;10.080;2022-08-19T03:17:32;27.77;;;17.83;;
8409;SDS011;4242;53.670;10.080;2022-08-19T03:19:58;23.00;;;16.03;;
8409;SDS011;4242;53.670;10.080;2022-08-19T03:22:24;28.67;;;16.57;;
8409;SDS011;4242;53.670;10.080;2022-08-19T03:24:50;25.67;;;15.60;;
8409;SDS011;4242;53.670;10.080;2022-08-19T03:27:16;28.73;;;16.40;;
8409;SDS011;4242;53.670;10.080;2022-08-19T03:29:42;22.80;;;15.93;;
8409;SDS011;4242;53.670;10.080;2022-08-19T03:32:09;26.30;;;15.80;;
8409;SDS011;4242;53.670;10.080;2022-08-19T03:34:36;23.53;;;15.27;;
8409;SDS011;4242;53.670;10.080;2022-08-19T03:37:04;24.77;;;16.30;;
8409;SDS011;4242;53.670;10.080;2022-08-19T03:39:30;22.03;;;13.93;;
8409;SDS011;4242;53.670;10.080;2022-08-19T03:41:56;22.50;;;14.73;;
8409;SDS011;4242;53.670;10.080;2022-08-19T03:44:27;21.27;;;15.37;;
8409;SDS011;4242;53.670;10.080;2022-08-19T03:46:55;19.23;;;13.87;;
8409;SDS011;4242;53.670;10.080;2022-08-19T03:49:21;21.77;;;14.40;;
8409;SDS011;4242;53.670;10.080;2022-08-19T03:51:48;20.00;;;15.10;;
8409;SDS011;4242;53.670;10.080;2022-08-19T03:54:18;25.20;;;14.20;;
8409;SDS011;4242;53.670;10.080;2022-08-19T03:56:45;18.40;;;14.07;;
8409;SDS011;4242;53.670;10.080;2022-08-19T03:59:13;26.13;;;16.13;;
8409;SDS011;4242;53.670;10.080;2022-08-19T04:01:39;21.57;;;15.50;;
8409;SDS011;4242;53.670;10.080;2022-08-19T04:04:05;24.77;;;16.57;;
8409;SDS011;4242;53.670;10.080;2022-08-19T04:06:32;24.13;;;17.20;;
8409;SDS011;4242;53.670;10.080;2022-08-19T04:09:00;20.80;;;13.93;;
8409;SDS011;4242;53.670;10.080;2022-08-19T04:12:08;21.67;;;15.43;;
8409;SDS011;4242;53.670;10.080;2022-08-19T04:14:19;19.40;;;15.50;;
8409;SDS011;4242;53.670;10.080;2022-08-19T04:16:46;22.60;;;15.90;;
8409;SDS011;4242;53.670;10.080;2022-08-19T04:19:13;25.70;;;16.93;;
8409;SDS011;4242;53.670;10.080;2022-08-19T04:21:39;26.80;;;16.57;;
8409;SDS011;4242;53.670;10.080;2022-08-19T04:24:06;25.40;;;17.43;;
8409;SDS011;4242;53.670;10.080;2022-08-19T04:26:34;35.10;;;19.57;;
8409;SDS011;4242;53.670;10.080;2022-08-19T04:29:03;25.50;;;18.60;;
8409;SDS011;4242;53.670;10.080;2022-08-19T04:31:30;28.60;;;18.23;;
8409;SDS011;4242;53.670;10.080;2022-08-19T04:34:00;36.10;;;21.70;;
8409;SDS011;4242;53.670;10.080;2022-08-19T04:36:28;30.03;;;19.50;;
8409;SDS011;4242;53.670;10.080;2022-08-19T04:38:55;38.83;;;21.00;;
8409;SDS011;4242;53.670;10.080;2022-08-19T04:41:22;37.60;;;21.70;;
8409;SDS011;4242;53.670;10.080;2022-08-19T04:44:07;31.93;;;20.70;;
8409;SDS011;4242;53.670;10.080;2022-08-19T04:46:33;34.30;;;20.17;;
8409;SDS011;4242;53.670;10.080;2022-08-19T04:48:59;36.90;;;20.17;;
8409;SDS011;4242;53.670;10.080;2022-08-19T04:51:26;37.37;;;19.40;;
8409;SDS011;4242;53.670;10.080;2022-08-19T04:53:52;32.20;;;20.43;;
8409;SDS011;4242;53.670;10.080;2022-08-19T04:56:19;30.07;;;18.47;;
8409;SDS011;4242;53.670;10.080;2022-08-19T04:58:46;29.37;;;19.23;;
8409;SDS011;4242;53.670;10.080;2022-08-19T05:01:22;27.00;;;19.83;;
8409;SDS011;4242;53.670;10.080;2022-08-19T05:03:49;33.93;;;19.00;;
8409;SDS011;4242;53.670;10.080;2022-08-19T05:06:15;25.87;;;18.17;;
8409;SDS011;4242;53.670;10.080;2022-08-19T05:08:42;32.03;;;18.60;;
8409;SDS011;4242;53.670;10.080;2022-08-19T05:11:11;35.60;;;17.97;;
8409;SDS011;4242;53.670;10.080;2022-08-19T05:13:38;30.00;;;18.87;;
8409;SDS011;4242;53.670;10.080;2022-08-19T05:16:04;31.00;;;18.07;;
8409;SDS011;4242;53.670;10.080;2022-08-19T05:18:30;25.40;;;15.87;;
8409;SDS011;4242;53.670;10.080;2022-08-19T05:21:15;28.87;;;17.37;;
8409;SDS011;4242;53.670;10.080;2022-08-19T05:24:00;25.27;;;16.73;;
8409;SDS011;4242;53.670;10.080;2022-08-19T05:26:27;26.80;;;16.63;;
8409;SDS011;4242;53.670;10.080;2022-08-19T05:28:53;22.17;;;15.40;;
8409;SDS011;4242;53.670;10.080;2022-08-19T05:31:20;22.17;;;16.20;;
8409;SDS011;4242;53.670;10.080;2022-08-19T05:33:46;20.47;;;15.10;;
8409;SDS011;4242;53.670;10.080;2022-08-19T05:36:12;19.90;;;15.17;;
8409;SDS011;4242;53.670;10.080;2022-08-19T05:38:39;20.10;;;13.73;;
8409;SDS011;4242;53.670;10.080;2022-08-19T05:41:23;21.17;;;15.90;;
8409;SDS011;4242;53.670;10.080;2022-08-19T05:43:54;24.27;;;16.33;;
8409;SDS011;4242;53.670;10.080;2022-08-19T05:46:21;22.67;;;15.67;;
8409;SDS011;4242;53.670;10.080;2022-08-19T05:48:47;24.63;;;16.17;;
8409;SDS011;4242;53.670;10.080;2022-08-19T05:51:14;30.43;;;16.93;;
8409;SDS011;4242;53.670;10.080;2022-08-19T05:53:41;29.60;;;17.47;;
8409;SDS011;4242;53.670;10.080;2022-08-19T05:56:11;28.57;;;17.97;;
8409;SDS011;4242;53.670;10.080;2022-08-19T05:58:38;34.23;;;18.87;;
8409;SDS011;4242;53.670;10.080;2022-08-19T06:01:09;28.43;;;18.63;;
8409;SDS011;4242;53.670;10.080;2022-08-19T06:03:35;28.20;;;19.50;;
8409;SDS011;4242;53.670;10.080;2022-08-19T06:06:03;33.77;;;18.47;;
8409;SDS011;4242;53.670;10.080;2022-08-19T06:08:29;27.60;;;17.87;;
8409;SDS011;4242;53.670;10.080;2022-08-19T06:10:55;32.47;;;17.93;;
8409;SDS011;4242;53.670;10.080;2022-08-19T06:13:22;29.93;;;18.23;;
8409;SDS011;4242;53.670;10.080;2022-08-19T06:15:49;28.67;;;18.13;;
8409;SDS011;4242;53.670;10.080;2022-08-19T06:18:15;29.67;;;18.80;;
8409;SDS011;4242;53.670;10.080;2022-08-19T06:20:42;30.63;;;17.40;;
8409;SDS011;4242;53.670;10.080;2022-08-19T06:23:08;23.67;;;16.97;;
8409;SDS011;4242;53.670;10.080;2022-08-19T06:25:34;28.07;;;18.80;;
8409;SDS011;4242;53.670;10.080;2022-08-19T06:28:01;29.03;;;18.90;;
8409;SDS011;4242;53.670;10.080;2022-08-19T06:30:28;27.77;;;18.03;;
8409;SDS011;4242;53.670;10.080;2022-08-19T06:32:54;28.77;;;17.57;;
8409;SDS011;4242;53.670;10.080;2022-08-19T06:35:20;28.57;;;16.83;;
8409;SDS011;4242;53.670;10.080;2022-08-19T06:37:46;28.80;;;17.53;;
8409;SDS011;4242;53.670;10.080;2022-08-19T06:40:12;28.47;;;17.43;;
8409;SDS011;4242;53.670;10.080;2022-08-19T06:42:39;31.03;;;17.93;;
8409;SDS011;4242;53.670;10.080;2022-08-19T06:45:05;26.20;;;17.70;;
8409;SDS011;4242;53.670;10.080;2022-08-19T06:47:33;27.57;;;17.13;;
8409;SDS011;4242;53.670;10.080;2022-08-19T06:49:59;22.90;;;15.83;;
8409;SDS011;4242;53.670;10.080;2022-08-19T06:52:30;28.23;;;16.53;;
8409;SDS011;4242;53.670;10.080;2022-08-19T06:54:57;25.00;;;16.37;;
8409;SDS011;4242;53.670;10.080;2022-08-19T06:57:24;20.63;;;13.67;;
8409;SDS011;4242;53.670;10.080;2022-08-19T06:59:50;27.50;;;15.83;;
8409;SDS011;4242;53.670;10.080;2022-08-19T07:02:16;24.93;;;15.33;;
8409;SDS011;4242;53.670;10.080;2022-08-19T07:04:42;27.67;;;17.23;;
8409;SDS011;4242;53.670;10.080;2022-08-19T07:07:10;27.77;;;16.37;;
8409;SDS011;4242;53.670;10.080;2022-08-19T07:09:37;30.13;;;16.90;;
8409;SDS011;4242;53.670;10.080;2022-08-19T07:12:05;24.63;;;14.70;;
8409;SDS011;4242;53.670;10.080;2022-08-19T07:14:31;24.37;;;15.70;;
8409;SDS011;4242;53.670;10.080;2022-08-19T07:16:57;20.83;;;15.17;;
8409;SDS011;4242;53.670;10.080;2022-08-19T07:19:24;26.67;;;16.77;;
8409;SDS011;4242;53.670;10.080;2022-08-19T07:21:52;27.43;;;16.83;;
8409;SDS011;4242;53.670;10.080;2022-08-19T07:24:19;30.53;;;17.30;;
8409;SDS011;4242;53.670;10.080;2022-08-19T07:26:45;21.17;;;14.90;;
8409;SDS011;4242;53.670;10.080;2022-08-19T07:29:12;28.07;;;16.87;;
8409;SDS011;4242;53.670;10.080;2022-08-19T07:31:38;27.67;;;17.83;;
8409;SDS011;4242;53.670;10.080;2022-08-19T07:34:05;26.77;;;17.43;;
8409;SDS011;4242;53.670;10.080;2022-08-19T07:36:36;25.97;;;18.00;;
8409;SDS011;4242;53.670;10.080;2022-08-19T07:39:05;28.73;;;18.63;;
8409;SDS011;4242;53.670;10.080;2022-08-19T07:41:31;30.60;;;18.20;;
8409;SDS011;4242;53.670;10.080;2022-08-19T07:43:58;29.50;;;18.30;;
8409;SDS011;4242;53.670;10.080;2022-08-19T07:46:30;30.83;;;19.63;;
8409;SDS011;4242;53.670;10.080;2022-08-19T07:48:56;33.47;;;20.07;;
8409;SDS011;4242;53.670;10.080;2022-08-19T07:51:22;34.80;;;19.80;;
8409;SDS011;4242;53.670;10.080;2022-08-19T07:53:49;33.57;;;19.07;;
8409;SDS011;4242;53.670;10.080;2022-08-19T07:56:15;31.90;;;18.63;;
8409;SDS011;4242;53.670;10.080;2022-08-19T07:58:42;31.13;;;19.93;;
8409;SDS011;4242;53.670;10.080;2022-08-19T08:01:09;33.10;;;19.13;;
8409;SDS011;4242;53.670;10.080;2022-08-19T08:03:36;31.67;;;18.77;;
8409;SDS011;4242;53.670;10.080;2022-08-19T08:06:21;32.30;;;17.87;;
8409;SDS011;4242;53.670;10.080;2022-08-19T08:09:06;31.07;;;18.27;;
8409;SDS011;4242;53.670;10.080;2022-08-19T08:14:15;32.07;;;17.83;;
8409;SDS011;4242;53.670;10.080;2022-08-19T08:16:41;28.47;;;17.93;;
8409;SDS011;4242;53.670;10.080;2022-08-19T08:19:09;30.93;;;18.03;;
8409;SDS011;4242;53.670;10.080;2022-08-19T08:21:35;28.87;;;16.73;;
8409;SDS011;4242;53.670;10.080;2022-08-19T08:24:01;27.23;;;17.37;;
8409;SDS011;4242;53.670;10.080;2022-08-19T08:26:27;24.53;;;15.23;;
8409;SDS011;4242;53.670;10.080;2022-08-19T08:28:53;26.07;;;16.37;;
8409;SDS011;4242;53.670;10.080;2022-08-19T08:31:19;26.87;;;17.80;;
8409;SDS011;4242;53.670;10.080;2022-08-19T08:33:46;27.70;;;17.37;;
8409;SDS011;4242;53.670;10.080;2022-08-19T08:36:12;33.70;;;19.23;;
8409;SDS011;4242;53.670;10.080;2022-08-19T08:38:39;25.00;;;16.83;;
8409;SDS011;4242;53.670;10.080;2022-08-19T08:41:09;30.10;;;17.70;;
8409;SDS011;4242;53.670;10.080;2022-08-19T08:43:44;28.60;;;16.43;;
8409;SDS011;4242;53.670;10.080;2022-08-19T08:46:19;28.23;;;18.20;;
8409;SDS011;4242;53.670;10.080;2022-08-19T08:48:55;31.57;;;17.80;;
8409;SDS011;4242;53.670;10.080;2022-08-19T08:51:23;28.90;;;17.13;;
8409;SDS011;4242;53.670;10.080;2022-08-19T08:53:51;28.83;;;17.90;;
8409;SDS011;4242;53.670;10.080;2022-08-19T08:56:18;34.20;;;18.63;;
8409;SDS011;4242;53.670;10.080;2022-08-19T09:01:10;33.87;;;17.83;;
8409;SDS011;4242;53.670;10.080;2022-08-19T09:03:37;29.83;;;16.93;;
8409;SDS011;4242;53.670;10.080;2022-08-19T09:11:21;33.03;;;17.33;;
8409;SDS011;4242;53.670;10.080;2022-08-19T09:13:55;32.30;;;18.10;;
8409;SDS011;4242;53.670;10.080;2022-08-19T09:16:25;24.97;;;16.50;;
8409;SDS011;4242;53.670;10.080;2022-08-19T09:18:54;31.47;;;17.77;;
8409;SDS011;4242;53.670;10.080;2022-08-19T09:21:23;27.77;;;17.60;;
8409;SDS011;4242;53.670;10.080;2022-08-19T09:23:50;33.73;;;16.73;;
8409;SDS011;4242;53.670;10.080;2022-08-19T09:26:18;31.48;;;17.38;;
8409;SDS011;4242;53.670;10.080;2022-08-19T09:28:45;25.75;;;15.88;;
8409;SDS011;4242;53.670;10.080;2022-08-19T09:31:15;30.65;;;18.20;;
8409;SDS011;4242;53.670;10.080;2022-08-19T09:33:41;28.35;;;17.40;;
8409;SDS011;4242;53.670;10.080;2022-08-19T09:36:11;23.85;;;16.77;;
8409;SDS011;4242;53.670;10.080;2022-08-19T09:38:38;29.67;;;17.00;;
8409;SDS011;4242;53.670;10.080;2022-08-19T09:41:06;25.55;;;15.48;;
8409;SDS011;4242;53.670;10.080;2022-08-19T09:43:32;26.52;;;16.40;;
8409;SDS011;4242;53.670;10.080;2022-08-19T09:46:01;23.88;;;15.20;;
8409;SDS011;4242;53.670;10.080;2022-08-19T09:48:30;26.02;;;16.55;;
8409;SDS011;4242;53.670;10.080;2022-08-19T09:51:01;27.85;;;16.73;;
8409;SDS011;4242;53.670;10.080;2022-08-19T09:53:29;29.15;;;16.60;;
8409;SDS011;4242;53.670;10.080;2022-08-19T09:55:55;24.85;;;15.88;;
8409;SDS011;4242;53.670;10.080;2022-08-19T09:58:21;24.85;;;16.15;;
8409;SDS011;4242;53.670;10.080;2022-08-19T10:00:52;21.98;;;17.10;;
8409;SDS011;4242;53.670;10.080;2022-08-19T10:03:18;29.13;;;16.45;;
8409;SDS011;4242;53.670;10.080;2022-08-19T10:05:44;24.55;;;15.68;;
8409;SDS011;4242;53.670;10.080;2022-08-19T10:08:13;19.95;;;14.57;;
8409;SDS011;4242;53.670;10.080;2022-08-19T10:10:42;24.42;;;16.23;;
8409;SDS011;4242;53.670;10.080;2022-08-19T10:13:08;24.88;;;15.57;;
8409;SDS011;4242;53.670;10.080;2022-08-19T10:15:34;26.67;;;15.43;;
8409;SDS011;4242;53.670;10.080;2022-08-19T10:18:01;24.05;;;16.13;;
8409;SDS011;4242;53.670;10.080;2022-08-19T10:20:27;21.52;;;15.65;;
8409;SDS011;4242;53.670;10.080;2022-08-19T10:22:54;22.80;;;15.52;;
8409;SDS011;4242;53.670;10.080;2022-08-19T10:25:20;21.45;;;15.45;;
8409;SDS011;4242;53.670;10.080;2022-08-19T10:27:46;21.15;;;13.90;;
8409;SDS011;4242;53.670;10.080;2022-08-19T10:30:13;22.08;;;14.82;;
8409;SDS011;4242;53.670;10.080;2022-08-19T10:32:39;19.65;;;14.73;;
8409;SDS011;4242;53.670;10.080;2022-08-19T10:35:05;25.02;;;15.55;;
8409;SDS011;4242;53.670;10.080;2022-08-19T10:37:33;16.98;;;13.73;;
8409;SDS011;4242;53.670;10.080;2022-08-19T10:39:59;19.08;;;13.32;;
8409;SDS011;4242;53.670;10.080;2022-08-19T10:42:27;20.10;;;13.63;;
8409;SDS011;4242;53.670;10.080;2022-08-19T10:44:53;18.98;;;13.13;;
8409;SDS011;4242;53.670;10.080;2022-08-19T10:47:18;20.75;;;12.88;;
8409;SDS011;4242;53.670;10.080;2022-08-19T10:49:45;20.98;;;12.98;;
8409;SDS011;4242;53.670;10.080;2022-08-19T10:52:32;20.02;;;13.30;;
8409;SDS011;4242;53.670;10.080;2022-08-19T10:54:59;19.70;;;13.25;;
8409;SDS011;4242;53.670;10.080;2022-08-19T10:57:43;16.10;;;12.85;;
8409;SDS011;4242;53.670;10.080;2022-08-19T11:00:10;23.65;;;13.18;;
8409;SDS011;4242;53.670;10.080;2022-08-19T11:02:36;19.38;;;12.60;;
8409;SDS011;4242;53.670;10.080;2022-08-19T11:05:02;18.73;;;12.82;;
8409;SDS011;4242;53.670;10.080;2022-08-19T11:07:28;18.65;;;13.35;;
8409;SDS011;4242;53.670;10.080;2022-08-19T11:09:54;16.95;;;12.75;;
8409;SDS011;4242;53.670;10.080;2022-08-19T11:12:20;19.38;;;13.18;;
8409;SDS011;4242;53.670;10.080;2022-08-19T11:14:46;15.20;;;12.50;;
8409;SDS011;4242;53.670;10.080;2022-08-19T11:17:14;19.15;;;13.30;;
8409;SDS011;4242;53.670;10.080;2022-08-19T11:19:40;18.40;;;11.57;;
8409;SDS011;4242;53.670;10.080;2022-08-19T11:22:08;16.27;;;13.27;;
8409;SDS011;4242;53.670;10.080;2022-08-19T11:24:35;19.23;;;12.65;;
8409;SDS011;4242;53.670;10.080;2022-08-19T11:27:05;15.60;;;11.77;;
8409;SDS011;4242;53.670;10.080;2022-08-19T11:29:32;17.65;;;11.68;;
8409;SDS011;4242;53.670;10.080;2022-08-19T11:31:59;17.88;;;11.38;;
8409;SDS011;4242;53.670;10.080;2022-08-19T11:34:27;18.48;;;12.45;;
8409;SDS011;4242;53.670;10.080;2022-08-19T11:36:53;13.40;;;11.45;;
8409;SDS011;4242;53.670;10.080;2022-08-19T11:39:23;16.60;;;11.27;;
8409;SDS011;4242;53.670;10.080;2022-08-19T11:41:49;16.63;;;11.40;;
8409;SDS011;4242;53.670;10.080;2022-08-19T11:44:15;14.32;;;10.35;;
8409;SDS011;4242;53.670;10.080;2022-08-19T11:46:42;12.95;;;11.32;;
8409;SDS011;4242;53.670;10.080;2022-08-19T11:49:12;14.30;;;10.68;;
8409;SDS011;4242;53.670;10.080;2022-08-19T11:51:39;14.73;;;11.45;;
8409;SDS011;4242;53.670;10.080;2022-08-19T11:54:08;13.40;;;11.13;;
8409;SDS011;4242;53.670;10.080;2022-08-19T11:56:34;12.68;;;9.73;;
8409;SDS011;4242;53.670;10.080;2022-08-19T11:59:00;12.23;;;10.13;;
8409;SDS011;4242;53.670;10.080;2022-08-19T12:01:26;11.45;;;9.75;;
8409;SDS011;4242;53.670;10.080;2022-08-19T12:03:53;13.30;;;10.93;;
8409;SDS011;4242;53.670;10.080;2022-08-19T12:06:27;11.82;;;10.05;;
8409;SDS011;4242;53.670;10.080;2022-08-19T12:08:57;13.63;;;9.90;;
8409;SDS011;4242;53.670;10.080;2022-08-19T12:11:23;10.77;;;9.55;;
8409;SDS011;4242;53.670;10.080;2022-08-19T12:13:49;10.93;;;9.38;;
8409;SDS011;4242;53.670;10.080;2022-08-19T12:16:21;11.57;;;9.15;;
8409;SDS011;4242;53.670;10.080;2022-08-19T12:18:48;13.32;;;9.15;;
8409;SDS011;4242;53.670;10.080;2022-08-19T12:21:16;10.80;;;9.50;;
8409;SDS011;4242;53.670;10.080;2022-08-19T12:23:43;10.30;;;9.25;;
8409;SDS011;4242;53.670;10.080;2022-08-19T12:26:12;10.73;;;9.63;;
8409;SDS011;4242;53.670;10.080;2022-08-19T12:28:38;12.32;;;9.73;;
8409;SDS011;4242;53.670;10.080;2022-08-19T12:31:04;11.25;;;9.60;;
8409;SDS011;4242;53.670;10.080;2022-08-19T12:33:31;12.18;;;10.00;;
8409;SDS011;4242;53.670;10.080;2022-08-19T12:36:00;15.02;;;9.60;;
8409;SDS011;4242;53.670;10.080;2022-08-19T12:38:26;12.88;;;9.82;;
8409;SDS011;4242;53.670;10.080;2022-08-19T12:40:52;13.40;;;8.85;;
8409;SDS011;4242;53.670;10.080;2022-08-19T12:43:18;10.90;;;9.80;;
8409;SDS011;4242;53.670;10.080;2022-08-19T12:45:47;11.98;;;9.57;;
8409;SDS011;4242;53.670;10.080;2022-08-19T12:48:13;11.95;;;9.77;;
8409;SDS011;4242;53.670;10.080;2022-08-19T12:50:40;11.15;;;9.90;;
8409;SDS011;4242;53.670;10.080;2022-08-19T12:53:06;10.63;;;9.52;;
8409;SDS011;4242;53.670;10.080;2022-08-19T12:55:32;10.77;;;9.68;;
8409;SDS011;4242;53.670;10.080;2022-08-19T12:57:58;13.25;;;11.15;;
8409;SDS011;4242;53.670;10.080;2022-08-19T13:00:27;9.95;;;8.25;;
8409;SDS011;4242;53.670;10.080;2022-08-19T13:02:53;11.52;;;9.27;;
8409;SDS011;4242;53.670;10.080;2022-08-19T13:05:20;11.73;;;10.55;;
8409;SDS011;4242;53.670;10.080;2022-08-19T13:07:48;10.40;;;9.38;;
8409;SDS011;4242;53.670;10.080;2022-08-19T13:10:15;10.57;;;8.65;;
8409;SDS011;4242;53.670;10.080;2022-08-19T13:12:42;12.02;;;9.48;;
8409;SDS011;4242;53.670;10.080;2022-08-19T13:15:08;10.18;;;8.82;;
8409;SDS011;4242;53.670;10.080;2022-08-19T13:17:35;11.00;;;9.80;;
8409;SDS011;4242;53.670;10.080;2022-08-19T13:20:02;8.82;;;8.00;;
8409;SDS011;4242;53.670;10.080;2022-08-19T13:22:29;9.65;;;8.65;;
8409;SDS011;4242;53.670;10.080;2022-08-19T13:24:56;8.68;;;7.82;;
8409;SDS011;4242;53.670;10.080;2022-08-19T13:27:22;9.10;;;8.02;;
8409;SDS011;4242;53.670;10.080;2022-08-19T13:29:48;9.13;;;8.15;;
8409;SDS011;4242;53.670;10.080;2022-08-19T13:32:32;7.85;;;7.07;;
8409;SDS011;4242;53.670;10.080;2022-08-19T13:35:17;8.45;;;7.63;;
8409;SDS011;4242;53.670;10.080;2022-08-19T13:37:43;10.50;;;8.38;;
8409;SDS011;4242;53.670;10.080;2022-08-19T13:40:17;10.27;;;8.98;;
8409;SDS011;4242;53.670;10.080;2022-08-19T13:42:48;8.88;;;7.95;;
8409;SDS011;4242;53.670;10.080;2022-08-19T13:45:15;7.43;;;6.70;;
8409;SDS011;4242;53.670;10.080;2022-08-19T13:47:44;8.88;;;7.97;;
8409;SDS011;4242;53.670;10.080;2022-08-19T13:50:11;9.73;;;8.77;;
8409;SDS011;4242;53.670;10.080;2022-08-19T13:52:38;8.80;;;7.88;;
8409;SDS011;4242;53.670;10.080;2022-08-19T13:55:04;8.55;;;7.75;;
8409;SDS011;4242;53.670;10.080;2022-08-19T13:57:31;8.30;;;7.45;;
8409;SDS011;4242;53.670;10.080;2022-08-19T13:59:57;8.45;;;7.65;;
8409;SDS011;4242;53.670;10.080;2022-08-19T14:02:23;9.10;;;8.20;;
8409;SDS011;4242;53.670;10.080;2022-08-19T14:04:49;7.18;;;6.57;;
8409;SDS011;4242;53.670;10.080;2022-08-19T14:07:15;7.40;;;6.80;;
8409;SDS011;4242;53.670;10.080;2022-08-19T14:09:41;9.13;;;7.70;;
8409;SDS011;4242;53.670;10.080;2022-08-19T14:12:07;8.00;;;7.20;;
8409;SDS011;4242;53.670;10.080;2022-08-19T14:14:37;8.50;;;7.70;;
8409;SDS011;4242;53.670;10.080;2022-08-19T14:17:06;8.98;;;8.13;;
8409;SDS011;4242;53.670;10.080;2022-08-19T14:19:32;8.80;;;7.93;;
8409;SDS011;4242;53.670;10.080;2022-08-19T14:21:58;7.95;;;7.25;;
8409;SDS011;4242;53.670;10.080;2022-08-19T14:24:24;8.27;;;7.10;;
8409;SDS011;4242;53.670;10.080;2022-08-19T14:26:51;8.20;;;7.43;;
8409;SDS011;4242;53.670;10.080;2022-08-19T14:29:17;7.90;;;7.20;;
8409;SDS011;4242;53.670;10.080;2022-08-19T14:31:42;8.50;;;7.78;;
8409;SDS011;4242;53.670;10.080;2022-08-19T14:34:09;8.57;;;7.78;;
8409;SDS011;4242;53.670;10.080;2022-08-19T14:36:36;7.80;;;7.00;;
8409;SDS011;4242;53.670;10.080;2022-08-19T14:39:02;7.38;;;6.82;;
8409;SDS011;4242;53.670;10.080;2022-08-19T14:41:28;8.65;;;7.88;;
8409;SDS011;4242;53.670;10.080;2022-08-19T14:43:55;8.38;;;7.68;;
8409;SDS011;4242;53.670;10.080;2022-08-19T14:46:23;7.53;;;6.93;;
8409;SDS011;4242;53.670;10.080;2022-08-19T14:48:50;9.00;;;8.10;;
8409;SDS011;4242;53.670;10.080;2022-08-19T14:51:16;8.57;;;7.78;;